Time;durP1;ratioP1;P1;durP2;ratioP2;P2;SDS_P1;SDS_P2;PMS_P1;PMS_P2;Temp;Humidity;BMP_temperature;BMP_pressure;BME280_temperature;BME280_humidity;BME280_pressure;Samples;Min_cycle;Max_cycle;Signal;HPM_P1;HPM_P2
2023/07/10 00:01:16;;;;;;;;;16.00;13.00;;;;;24.49;44.98;101318.32;110154;1257;20755;-40
2023/07/10 00:03:43;;;;;;;;;18.00;17.00;;;;;24.47;45.09;101313.70;110157;1264;20944;-40
2023/07/10 00:06:10;;;;;;;;;18.00;16.00;;;;;24.46;45.33;101316.59;110157;1256;19893;-39
2023/07/10 00:08:38;;;;;;;;;16.00;14.00;;;;;24.47;45.53;101313.98;110091;1250;20867;-39
2023/07/10 00:11:05;;;;;;;;;18.00;16.00;;;;;24.46;45.77;101314.06;110245;1250;21284;-39
2023/07/10 00:13:33;;;;;;;;;16.00;16.00;;;;;24.46;46.01;101316.42;110246;1264;18895;-41
2023/07/10 00:16:00;;;;;;;;;19.00;17.50;;;;;24.45;46.18;101318.39;110188;1264;19344;-39
2023/07/10 00:18:28;;;;;;;;;18.00;17.00;;;;;24.46;46.31;101327.25;110242;1250;20094;-39
2023/07/10 00:20:55;;;;;;;;;17.50;16.50;;;;;24.46;46.44;101326.33;110249;1264;18717;-39
2023/07/10 00:23:22;;;;;;;;;16.50;16.00;;;;;24.45;46.78;101322.27;110250;1249;22158;-39
2023/07/10 00:25:50;;;;;;;;;18.00;17.50;;;;;24.45;47.01;101320.29;110230;1250;18585;-39
2023/07/10 00:28:17;;;;;;;;;21.50;18.00;;;;;24.44;47.05;101320.91;110205;1249;22091;-39
2023/07/10 00:30:46;;;;;;;;;18.00;17.00;;;;;24.44;47.27;101319.63;110196;1250;20759;-39
2023/07/10 00:33:13;;;;;;;;;17.50;16.00;;;;;24.43;47.53;101320.46;110219;1264;18608;-39
2023/07/10 00:35:41;;;;;;;;;16.00;14.00;;;;;24.42;47.62;101320.05;110162;1264;20098;-39
2023/07/10 00:38:08;;;;;;;;;18.00;18.00;;;;;24.41;47.68;101321.44;110187;1250;20781;-39
2023/07/10 00:40:36;;;;;;;;;13.50;13.00;;;;;24.41;47.75;101322.20;110199;1250;22228;-39
2023/07/10 00:43:03;;;;;;;;;18.00;16.00;;;;;24.41;47.86;101324.77;110194;1250;20133;-40
2023/07/10 00:45:31;;;;;;;;;16.00;14.00;;;;;24.40;48.04;101322.90;110216;1250;20819;-40
2023/07/10 00:47:58;;;;;;;;;20.00;17.00;;;;;24.40;47.96;101324.20;110193;1264;22691;-40
2023/07/10 00:50:26;;;;;;;;;16.50;16.50;;;;;24.38;47.91;101319.47;110245;1250;20138;-39
2023/07/10 00:52:53;;;;;;;;;20.00;18.00;;;;;24.37;47.93;101318.85;110208;1264;19208;-39
2023/07/10 00:55:21;;;;;;;;;22.00;21.00;;;;;24.37;47.78;101317.04;110197;1256;23474;-40
2023/07/10 00:57:48;;;;;;;;;18.00;17.50;;;;;24.36;47.69;101308.24;110212;1265;18838;-40
2023/07/10 01:00:16;;;;;;;;;18.00;16.50;;;;;24.35;47.64;101308.28;110213;1257;22089;-39
2023/07/10 01:02:43;;;;;;;;;22.00;18.00;;;;;24.34;47.55;101303.15;110211;1249;20032;-40
2023/07/10 01:05:11;;;;;;;;;16.50;16.00;;;;;24.34;47.70;101303.32;110220;1248;20509;-40
2023/07/10 01:07:38;;;;;;;;;17.00;16.00;;;;;24.32;47.63;101306.83;110218;1264;20856;-39
2023/07/10 01:10:06;;;;;;;;;15.00;14.00;;;;;24.31;47.87;101312.44;110165;1264;19936;-40
2023/07/10 01:12:33;;;;;;;;;19.67;17.33;;;;;24.31;47.92;101312.82;110180;1249;20210;-40
2023/07/10 01:15:00;;;;;;;;;16.00;16.00;;;;;24.31;48.12;101314.16;110167;1250;20767;-40
2023/07/10 01:17:29;;;;;;;;;17.00;16.00;;;;;24.29;48.14;101311.39;110173;1250;20121;-40
2023/07/10 01:19:56;;;;;;;;;16.50;16.00;;;;;24.29;48.25;101308.73;110169;1250;22938;-40
2023/07/10 01:22:24;;;;;;;;;16.00;13.00;;;;;24.28;48.27;101313.91;110198;1264;20699;-40
2023/07/10 01:24:52;;;;;;;;;20.00;17.50;;;;;24.27;48.33;101311.08;110192;1250;20092;-41
2023/07/10 01:27:20;;;;;;;;;16.00;15.00;;;;;24.27;48.42;101314.82;110179;1256;20175;-40
2023/07/10 01:29:47;;;;;;;;;17.00;16.00;;;;;24.25;48.49;101322.60;110211;1265;20991;-40
2023/07/10 01:32:14;;;;;;;;;16.00;14.00;;;;;24.25;48.53;101324.79;110261;1249;22214;-40
2023/07/10 01:34:42;;;;;;;;;24.00;20.50;;;;;24.26;48.49;101327.48;110266;1264;18775;-40
2023/07/10 01:37:09;;;;;;;;;18.00;18.00;;;;;24.24;48.54;101325.06;110291;1250;20850;-40
2023/07/10 01:39:37;;;;;;;;;24.00;20.00;;;;;24.23;48.62;101320.87;110273;1250;22255;-40
2023/07/10 01:42:04;;;;;;;;;18.00;16.00;;;;;24.22;48.63;101318.75;110224;1250;18727;-40
2023/07/10 01:44:32;;;;;;;;;17.00;17.00;;;;;24.22;48.71;101316.57;110191;1250;20853;-39
2023/07/10 01:46:59;;;;;;;;;17.50;16.50;;;;;24.21;48.92;101311.92;110202;1250;20010;-40
2023/07/10 01:49:27;;;;;;;;;18.00;16.00;;;;;24.21;48.70;101309.05;110192;1250;22380;-41
2023/07/10 01:51:54;;;;;;;;;17.50;16.00;;;;;24.21;48.89;101313.05;110207;1264;19545;-40
2023/07/10 01:54:21;;;;;;;;;18.00;17.00;;;;;24.20;49.09;101309.75;110193;1250;20045;-40
2023/07/10 01:56:49;;;;;;;;;16.50;16.50;;;;;24.20;49.08;101312.62;110178;1250;20178;-40
2023/07/10 01:59:16;;;;;;;;;17.00;16.00;;;;;24.20;49.25;101323.66;110213;1250;22086;-40
2023/07/10 02:01:44;;;;;;;;;20.00;18.50;;;;;24.19;49.21;101323.96;110189;1264;18590;-40
2023/07/10 02:04:11;;;;;;;;;16.50;16.50;;;;;24.18;49.18;101324.03;110155;1264;22239;-40
2023/07/10 02:06:39;;;;;;;;;16.00;15.67;;;;;24.17;49.28;101319.46;110185;1250;20956;-40
2023/07/10 02:09:06;;;;;;;;;17.00;16.00;;;;;24.18;49.29;101314.04;110159;1264;18600;-40
2023/07/10 02:11:35;;;;;;;;;17.00;16.00;;;;;24.16;49.30;101308.41;110169;1256;19956;-39
2023/07/10 02:14:02;;;;;;;;;14.33;14.33;;;;;24.15;49.34;101313.04;110265;1250;20917;-41
2023/07/10 02:16:29;;;;;;;;;17.50;15.00;;;;;24.15;49.38;101315.05;110214;1250;20041;-40
2023/07/10 02:18:57;;;;;;;;;17.00;16.00;;;;;24.16;49.39;101308.58;110194;1250;20100;-40
2023/07/10 02:21:24;;;;;;;;;19.00;16.67;;;;;24.15;49.44;101310.92;110188;1264;19439;-40
2023/07/10 02:23:52;;;;;;;;;18.33;18.33;;;;;24.15;49.45;101316.58;110196;1250;22118;-40
2023/07/10 02:26:19;;;;;;;;;15.50;15.50;;;;;24.15;49.35;101317.54;110217;1250;20148;-40
2023/07/10 02:28:46;;;;;;;;;14.33;13.00;;;;;24.14;49.32;101322.34;110191;1256;19331;-40
2023/07/10 02:31:14;;;;;;;;;19.00;16.50;;;;;24.13;49.13;101327.75;110202;1250;22575;-40
2023/07/10 02:33:41;;;;;;;;;16.00;16.00;;;;;24.12;48.82;101325.63;110250;1250;21268;-40
2023/07/10 02:36:09;;;;;;;;;13.00;13.00;;;;;24.12;48.81;101331.02;110209;1265;19321;-39
2023/07/10 02:38:36;;;;;;;;;17.00;14.00;;;;;24.11;48.82;101334.89;110209;1250;22347;-40
2023/07/10 02:41:03;;;;;;;;;16.00;14.00;;;;;24.12;48.72;101331.39;110216;1264;18835;-40
2023/07/10 02:43:31;;;;;;;;;16.00;16.00;;;;;24.10;48.58;101330.98;110182;1249;20675;-40
2023/07/10 02:45:58;;;;;;;;;14.00;13.50;;;;;24.11;48.74;101337.86;110182;1250;20006;-40
2023/07/10 02:48:26;;;;;;;;;16.50;15.50;;;;;24.10;48.71;101346.33;110200;1265;18736;-39
2023/07/10 02:50:53;;;;;;;;;16.33;15.33;;;;;24.09;48.91;101342.69;110186;1264;22872;-39
2023/07/10 02:53:20;;;;;;;;;18.00;16.00;;;;;24.09;48.71;101344.30;110197;1264;20314;-40
2023/07/10 02:55:48;;;;;;;;;13.00;12.50;;;;;24.08;48.77;101339.65;110194;1264;18657;-40
2023/07/10 02:58:15;;;;;;;;;16.00;16.00;;;;;24.08;48.62;101346.08;110138;1250;22216;-40
2023/07/10 03:00:43;;;;;;;;;19.00;19.00;;;;;24.08;48.54;101352.52;110208;1257;19835;-39
2023/07/10 03:03:10;;;;;;;;;16.00;13.00;;;;;24.07;48.40;101349.80;110191;1264;21530;-39
2023/07/10 03:05:37;;;;;;;;;16.67;13.67;;;;;24.07;48.65;101352.41;110202;1249;20776;-38
2023/07/10 03:08:05;;;;;;;;;16.00;14.00;;;;;24.07;48.56;101349.36;110222;1250;20013;-40
2023/07/10 03:10:32;;;;;;;;;12.00;12.00;;;;;24.06;48.47;101350.84;110204;1264;22182;-39
2023/07/10 03:13:00;;;;;;;;;12.33;11.33;;;;;24.07;48.69;101347.52;110193;1264;19378;-39
2023/07/10 03:15:27;;;;;;;;;17.00;15.00;;;;;24.07;48.71;101347.15;110195;1249;22925;-39
2023/07/10 03:17:54;;;;;;;;;16.50;14.50;;;;;24.06;48.99;101348.85;110173;1264;18667;-39
2023/07/10 03:20:22;;;;;;;;;17.00;17.00;;;;;24.06;49.15;101349.37;110176;1250;22150;-40
2023/07/10 03:22:49;;;;;;;;;17.00;16.00;;;;;24.07;49.28;101354.61;110226;1264;18575;-41
2023/07/10 03:25:17;;;;;;;;;18.00;13.00;;;;;24.07;49.24;101355.56;110165;1264;18871;-40
2023/07/10 03:27:44;;;;;;;;;17.00;16.00;;;;;24.06;49.50;101353.14;110147;1250;19527;-40
2023/07/10 03:30:11;;;;;;;;;19.00;17.00;;;;;24.05;49.54;101352.88;110175;1250;21399;-40
2023/07/10 03:32:39;;;;;;;;;14.00;14.00;;;;;24.03;49.74;101362.59;110238;1250;20066;-40
2023/07/10 03:35:06;;;;;;;;;18.00;17.00;;;;;24.03;49.86;101365.50;110187;1250;20744;-40
2023/07/10 03:37:34;;;;;;;;;15.00;14.00;;;;;24.02;49.78;101357.73;110180;1264;18586;-40
2023/07/10 03:40:01;;;;;;;;;16.50;15.00;;;;;24.02;49.98;101355.75;110198;1264;22284;-40
2023/07/10 03:42:28;;;;;;;;;17.00;16.00;;;;;24.01;50.03;101361.50;110177;1256;20583;-40
2023/07/10 03:44:56;;;;;;;;;16.00;16.00;;;;;24.01;50.05;101357.73;110190;1264;19830;-40
2023/07/10 03:47:23;;;;;;;;;16.00;16.00;;;;;24.01;50.08;101355.69;110220;1256;20033;-40
2023/07/10 03:49:50;;;;;;;;;21.50;19.00;;;;;24.00;49.93;101355.95;110191;1250;23778;-40
2023/07/10 03:52:18;;;;;;;;;16.00;16.00;;;;;24.01;49.95;101363.23;110189;1250;20059;-40
2023/07/10 03:54:45;;;;;;;;;19.50;18.00;;;;;24.00;50.11;101353.93;110273;1256;20124;-40
2023/07/10 03:57:13;;;;;;;;;20.50;19.00;;;;;24.00;50.22;101351.02;110231;1259;21008;-40
2023/07/10 03:59:40;;;;;;;;;16.00;16.00;;;;;24.01;50.23;101354.41;110214;1249;20207;-40
2023/07/10 04:02:08;;;;;;;;;20.00;20.00;;;;;24.01;50.21;101354.08;110212;1250;20200;-39
2023/07/10 04:04:36;;;;;;;;;20.00;16.00;;;;;24.00;50.14;101349.38;110185;1265;19350;-40
2023/07/10 04:07:03;;;;;;;;;15.50;15.50;;;;;23.99;50.20;101350.42;110195;1250;22681;-41
2023/07/10 04:09:30;;;;;;;;;20.00;18.00;;;;;23.99;50.40;101346.92;110232;1264;18733;-40
2023/07/10 04:11:58;;;;;;;;;23.00;20.00;;;;;24.00;50.23;101343.61;110200;1250;20811;-40
2023/07/10 04:14:25;;;;;;;;;20.00;19.00;;;;;24.01;50.45;101341.30;110182;1249;21585;-40
2023/07/10 04:16:53;;;;;;;;;24.00;19.50;;;;;24.01;50.37;101338.73;110170;1264;18679;-39
2023/07/10 04:19:21;;;;;;;;;25.00;22.00;;;;;24.00;50.45;101338.95;110205;1264;22129;-40
2023/07/10 04:21:48;;;;;;;;;20.00;19.00;;;;;24.01;50.54;101335.83;110187;1264;18580;-40
2023/07/10 04:24:16;;;;;;;;;24.00;21.00;;;;;24.00;50.35;101332.95;110172;1265;22788;-40
2023/07/10 04:26:45;;;;;;;;;20.00;17.00;;;;;24.00;50.29;101335.70;110221;1264;19347;-40
2023/07/10 04:29:12;;;;;;;;;18.00;18.00;;;;;23.98;50.16;101332.30;110205;1250;19996;-40
2023/07/10 04:31:40;;;;;;;;;20.00;19.00;;;;;23.98;49.97;101331.34;110209;1265;20078;-40
2023/07/10 04:34:07;;;;;;;;;19.00;17.00;;;;;23.70;50.43;101331.05;110187;1249;20693;-40
2023/07/10 04:36:35;;;;;;;;;20.00;20.00;;;;;23.41;51.22;101330.11;110162;1250;22230;-40
2023/07/10 04:39:03;;;;;;;;;17.00;17.00;;;;;23.27;51.88;101332.38;110192;1249;22899;-40
2023/07/10 04:41:30;;;;;;;;;19.00;18.50;;;;;23.21;52.37;101328.51;110200;1249;23014;-40
2023/07/10 04:43:58;;;;;;;;;19.00;18.00;;;;;23.22;52.07;101322.90;110209;1265;18689;-41
2023/07/10 04:46:25;;;;;;;;;18.50;18.50;;;;;23.20;52.15;101319.48;110206;1249;20130;-39
2023/07/10 04:48:53;;;;;;;;;26.00;26.00;;;;;23.25;51.72;101327.16;110266;1250;22590;-38
2023/07/10 04:51:20;;;;;;;;;24.00;22.00;;;;;23.27;51.36;101327.26;110208;1264;18526;-40
2023/07/10 04:53:47;;;;;;;;;22.00;20.00;;;;;23.29;51.31;101330.48;110245;1264;18850;-41
2023/07/10 04:56:15;;;;;;;;;33.00;28.33;;;;;23.30;50.97;101321.77;110178;1250;20772;-40
2023/07/10 04:58:42;;;;;;;;;24.50;22.50;;;;;23.23;50.48;101314.55;110191;1249;20000;-39
2023/07/10 05:01:10;;;;;;;;;23.00;22.00;;;;;23.26;50.17;101311.33;110195;1264;22683;-40
2023/07/10 05:03:37;;;;;;;;;23.67;21.00;;;;;23.23;50.03;101310.00;110196;1250;23803;-40
2023/07/10 05:06:05;;;;;;;;;21.00;19.00;;;;;23.25;50.19;101312.33;110220;1250;20343;-40
2023/07/10 05:08:32;;;;;;;;;27.00;23.00;;;;;23.28;49.68;101312.38;110180;1250;20340;-40
2023/07/10 05:10:59;;;;;;;;;19.00;18.00;;;;;23.35;49.32;101312.05;110181;1250;20718;-43
2023/07/10 05:13:27;;;;;;;;;15.50;14.00;;;;;23.36;48.93;101311.27;110212;1250;22123;-40
2023/07/10 05:15:54;;;;;;;;;14.50;12.50;;;;;23.39;48.47;101310.50;110216;1250;20949;-40
2023/07/10 05:18:21;;;;;;;;;12.00;11.00;;;;;23.46;48.00;101314.42;110185;1264;19348;-40
2023/07/10 05:20:49;;;;;;;;;15.00;12.33;;;;;23.49;47.56;101318.09;110213;1264;19683;-40
2023/07/10 05:23:16;;;;;;;;;12.00;9.00;;;;;23.45;47.32;101317.23;110105;1264;18708;-39
2023/07/10 05:25:44;;;;;;;;;13.00;13.00;;;;;23.39;47.59;101320.34;110156;1250;22194;-40
2023/07/10 05:28:11;;;;;;;;;12.67;12.00;;;;;23.41;47.71;101322.14;110081;1264;18629;-40
2023/07/10 05:30:39;;;;;;;;;11.33;10.33;;;;;23.34;47.71;101320.54;110161;1250;20250;-40
2023/07/10 05:33:07;;;;;;;;;13.00;12.50;;;;;23.43;47.37;101325.48;110161;1251;20769;-41
2023/07/10 05:35:34;;;;;;;;;11.33;11.33;;;;;23.38;47.63;101327.36;110164;1249;20217;-40
2023/07/10 05:38:01;;;;;;;;;15.00;13.00;;;;;23.48;47.61;101328.02;110131;1249;20141;-40
2023/07/10 05:40:29;;;;;;;;;13.00;13.00;;;;;23.47;47.97;101326.55;110152;1265;19351;-40
2023/07/10 05:42:56;;;;;;;;;18.00;16.00;;;;;23.42;48.78;101327.30;110186;1249;20002;-40
2023/07/10 05:45:24;;;;;;;;;18.00;16.00;;;;;23.36;49.77;101325.73;110217;1250;20158;-40
2023/07/10 05:47:51;;;;;;;;;13.00;12.00;;;;;23.39;50.25;101327.21;110194;1257;20723;-40
2023/07/10 05:50:18;;;;;;;;;12.00;12.00;;;;;23.39;50.66;101332.71;110181;1250;22729;-40
2023/07/10 05:52:46;;;;;;;;;12.00;11.00;;;;;23.44;50.69;101335.05;110199;1250;20124;-41
2023/07/10 05:55:13;;;;;;;;;15.00;12.00;;;;;23.47;50.90;101334.35;110180;1256;21018;-40
2023/07/10 05:57:41;;;;;;;;;19.00;17.00;;;;;23.50;51.15;101335.16;110200;1264;18599;-40
2023/07/10 06:00:08;;;;;;;;;15.00;13.00;;;;;23.53;50.89;101335.09;110192;1256;20176;-40
2023/07/10 06:02:36;;;;;;;;;16.00;15.00;;;;;23.60;50.53;101329.88;110186;1250;22096;-40
2023/07/10 06:05:03;;;;;;;;;13.00;12.00;;;;;23.66;50.25;101330.26;110198;1264;21119;-40
2023/07/10 06:07:31;;;;;;;;;14.00;12.50;;;;;23.71;50.05;101331.18;110222;1249;22790;-40
2023/07/10 06:09:58;;;;;;;;;15.50;14.00;;;;;23.64;50.08;101323.24;110245;1264;19355;-40
2023/07/10 06:12:26;;;;;;;;;13.00;13.00;;;;;23.68;50.12;101323.70;110226;1256;21555;-39
2023/07/10 06:14:53;;;;;;;;;13.00;13.00;;;;;23.81;50.27;101321.20;110244;1264;20038;-40
2023/07/10 06:17:20;;;;;;;;;12.00;12.00;;;;;23.82;50.20;101319.09;110233;1250;22865;-40
2023/07/10 06:19:48;;;;;;;;;12.00;12.00;;;;;23.91;49.95;101318.02;110187;1264;18887;-41
2023/07/10 06:22:15;;;;;;;;;15.00;13.00;;;;;24.02;49.93;101316.01;110194;1250;22372;-40
2023/07/10 06:24:43;;;;;;;;;12.00;12.00;;;;;24.14;49.95;101315.66;110233;1256;19382;-41
2023/07/10 06:27:10;;;;;;;;;12.00;12.00;;;;;24.20;50.03;101312.79;110232;1249;22284;-41
2023/07/10 06:29:37;;;;;;;;;9.50;9.50;;;;;24.27;50.01;101305.81;110230;1264;18744;-40
2023/07/10 06:32:05;;;;;;;;;9.00;9.00;;;;;24.33;50.12;101304.04;110212;1250;20807;-39
2023/07/10 06:34:32;;;;;;;;;9.00;9.00;;;;;24.37;50.08;101304.39;110242;1264;19743;-41
2023/07/10 06:37:00;;;;;;;;;11.00;8.50;;;;;24.43;50.04;101298.92;110285;1264;20503;-41
2023/07/10 06:39:27;;;;;;;;;8.00;8.00;;;;;24.48;50.19;101302.20;110181;1250;20729;-41
2023/07/10 06:41:55;;;;;;;;;8.00;6.00;;;;;24.52;50.27;101300.61;110217;1264;19960;-39
2023/07/10 06:44:22;;;;;;;;;8.00;8.00;;;;;24.56;50.10;101291.92;110222;1264;18971;-39
2023/07/10 06:46:50;;;;;;;;;7.00;6.00;;;;;24.60;50.24;101294.48;110270;1264;19370;-39
2023/07/10 06:49:17;;;;;;;;;9.00;8.00;;;;;24.62;50.23;101287.30;110278;1249;21415;-38
2023/07/10 06:51:45;;;;;;;;;7.00;7.00;;;;;24.64;50.38;101287.58;110214;1250;20040;-39
2023/07/10 06:54:12;;;;;;;;;8.00;8.00;;;;;24.66;50.12;101284.58;110284;1265;19567;-39
2023/07/10 06:56:42;;;;;;;;;6.00;6.00;;;;;24.68;50.20;101283.98;110283;1264;18417;-40
2023/07/10 06:59:09;;;;;;;;;5.50;5.00;;;;;24.69;50.02;101282.35;110299;1264;20198;-40
2023/07/10 07:01:38;;;;;;;;;10.00;9.00;;;;;24.69;49.97;101276.45;110311;1264;20079;-40
2023/07/10 07:04:05;;;;;;;;;5.00;5.00;;;;;24.73;49.62;101273.23;110136;1248;162262;-40
2023/07/10 07:06:32;;;;;;;;;6.00;5.00;;;;;24.75;49.43;101276.69;110302;1250;20188;-40
2023/07/10 07:09:00;;;;;;;;;5.00;5.00;;;;;24.75;49.30;101274.96;110241;1256;20879;-40
2023/07/10 07:11:27;;;;;;;;;5.00;5.00;;;;;24.77;49.31;101274.80;110198;1265;19813;-40
2023/07/10 07:13:55;;;;;;;;;4.33;4.33;;;;;24.78;49.30;101268.96;110241;1257;19891;-41
2023/07/10 07:16:22;;;;;;;;;19.00;18.00;;;;;24.80;49.22;101265.11;110218;1250;20837;-41
2023/07/10 07:18:51;;;;;;;;;137.00;104.00;;;;;24.84;49.48;101260.85;110209;1264;18420;-41
2023/07/10 07:21:18;;;;;;;;;101.00;72.00;;;;;24.85;49.40;101256.52;110230;1256;20139;-41
2023/07/10 07:23:46;;;;;;;;;91.00;65.00;;;;;24.86;49.35;101262.20;110293;1250;23130;-42
2023/07/10 07:26:14;;;;;;;;;103.00;75.00;;;;;24.89;49.47;101260.91;110223;1249;18938;-40
2023/07/10 07:28:41;;;;;;;;;77.50;58.00;;;;;24.91;49.34;101267.02;110213;1264;18603;-39
2023/07/10 07:31:08;;;;;;;;;73.00;53.00;;;;;24.94;49.37;101268.63;110263;1264;19303;-39
2023/07/10 07:33:36;;;;;;;;;68.00;51.50;;;;;24.98;49.41;101266.70;110262;1250;19039;-39
2023/07/10 07:36:04;;;;;;;;;64.00;46.00;;;;;24.99;49.53;101264.85;110215;1250;21693;-39
2023/07/10 07:38:31;;;;;;;;;65.00;49.00;;;;;24.98;49.62;101264.64;110230;1265;19342;-39
2023/07/10 07:40:59;;;;;;;;;53.00;41.50;;;;;25.00;49.69;101262.79;110258;1249;19988;-39
2023/07/10 07:43:26;;;;;;;;;60.00;40.50;;;;;25.02;49.58;101260.20;110281;1249;22783;-39
2023/07/10 07:45:54;;;;;;;;;41.00;35.00;;;;;25.02;49.79;101261.45;110221;1250;20796;-40
2023/07/10 07:48:21;;;;;;;;;50.00;37.00;;;;;25.00;49.50;101260.71;110221;1264;19907;-40
2023/07/10 07:50:48;;;;;;;;;37.50;30.50;;;;;24.99;49.57;101258.31;110205;1264;20110;-42
2023/07/10 07:53:16;;;;;;;;;33.50;28.00;;;;;24.98;49.60;101258.81;110261;1265;19330;-42
2023/07/10 07:55:43;;;;;;;;;23.00;20.00;;;;;24.97;49.49;101259.14;110191;1250;19989;-41
2023/07/10 07:58:11;;;;;;;;;21.00;19.00;;;;;24.97;49.60;101259.13;110186;1264;22598;-40
2023/07/10 08:00:38;;;;;;;;;19.00;19.00;;;;;24.97;49.39;101254.36;110224;1250;20803;-41
2023/07/10 08:03:05;;;;;;;;;18.00;16.50;;;;;24.97;49.39;101259.13;110174;1256;20012;-41
2023/07/10 08:05:33;;;;;;;;;16.00;15.00;;;;;25.00;49.22;101257.55;110225;1265;20382;-41
2023/07/10 08:08:00;;;;;;;;;14.00;13.00;;;;;24.99;49.08;101256.02;110262;1249;22195;-40
2023/07/10 08:10:28;;;;;;;;;17.00;13.00;;;;;25.00;49.08;101254.94;110268;1249;19917;-41
2023/07/10 08:12:55;;;;;;;;;15.00;11.00;;;;;24.99;48.94;101254.21;110212;1264;22329;-41
2023/07/10 08:15:22;;;;;;;;;13.00;11.00;;;;;24.97;48.78;101251.88;110197;1264;19213;-41
2023/07/10 08:17:50;;;;;;;;;15.00;12.00;;;;;24.95;48.83;101247.29;110313;1264;18600;-42
2023/07/10 08:20:17;;;;;;;;;10.00;9.00;;;;;24.95;48.78;101246.80;110213;1264;22327;-42
2023/07/10 08:22:45;;;;;;;;;9.00;7.50;;;;;24.97;48.67;101244.91;110196;1250;20893;-42
2023/07/10 08:25:12;;;;;;;;;10.00;9.00;;;;;25.01;48.45;101243.34;110176;1264;19714;-43
2023/07/10 08:27:41;;;;;;;;;8.00;7.00;;;;;25.03;48.27;101239.17;110271;1249;18647;-42
2023/07/10 08:30:08;;;;;;;;;9.67;9.00;;;;;25.01;48.23;101238.66;110220;1254;20792;-42
2023/07/10 08:32:35;;;;;;;;;9.00;7.50;;;;;25.00;47.99;101237.69;110185;1264;18590;-42
2023/07/10 08:35:03;;;;;;;;;8.50;7.00;;;;;24.99;48.03;101234.92;110198;1250;20123;-42
2023/07/10 08:37:31;;;;;;;;;7.00;6.33;;;;;25.00;47.91;101234.23;110211;1250;20804;-42
2023/07/10 08:39:58;;;;;;;;;5.00;5.00;;;;;24.99;47.81;101228.86;110179;1250;22745;-42
2023/07/10 08:42:27;;;;;;;;;6.50;6.50;;;;;25.00;47.73;101229.12;110227;1250;18627;-42
2023/07/10 08:44:54;;;;;;;;;7.00;5.67;;;;;24.99;47.69;101231.77;110188;1250;20725;-42
2023/07/10 08:47:22;;;;;;;;;5.00;5.00;;;;;25.01;47.64;101228.32;110278;1250;20676;-43
2023/07/10 08:49:54;;;;;;;;;5.67;4.67;;;;;25.00;47.69;101231.27;110232;1250;20195;-40
2023/07/10 08:52:21;;;;;;;;;5.00;5.00;;;;;25.02;47.56;101230.50;110232;1250;21251;-42
2023/07/10 08:54:49;;;;;;;;;6.00;6.00;;;;;25.02;47.72;101226.17;110221;1250;20717;-42
2023/07/10 08:57:16;;;;;;;;;5.00;3.50;;;;;25.01;47.62;101221.86;110262;1265;20308;-42
2023/07/10 08:59:44;;;;;;;;;5.00;4.50;;;;;25.01;47.52;101219.80;110279;1250;20801;-42
2023/07/10 09:02:11;;;;;;;;;4.50;4.50;;;;;25.02;47.56;101219.73;110222;1250;19654;-42
2023/07/10 09:04:38;;;;;;;;;5.00;5.00;;;;;25.02;47.51;101217.96;110196;1250;22780;-42
2023/07/10 09:07:06;;;;;;;;;3.00;3.00;;;;;25.02;47.62;101217.95;110195;1250;21988;-42
2023/07/10 09:09:33;;;;;;;;;3.00;3.00;;;;;25.02;47.66;101213.02;110185;1264;18422;-42
2023/07/10 09:12:01;;;;;;;;;3.00;3.00;;;;;25.01;47.66;101210.91;110204;1250;20048;-42
2023/07/10 09:14:28;;;;;;;;;3.00;3.00;;;;;25.01;47.64;101211.45;110261;1257;20699;-41
2023/07/10 09:16:56;;;;;;;;;5.00;4.50;;;;;25.00;47.63;101204.23;110249;1250;23246;-41
2023/07/10 09:19:23;;;;;;;;;5.00;5.00;;;;;25.01;47.70;101205.79;110256;1250;19977;-41
2023/07/10 09:21:50;;;;;;;;;2.00;2.00;;;;;25.01;47.70;101208.40;110195;1250;21007;-41
2023/07/10 09:24:18;;;;;;;;;2.00;2.00;;;;;25.01;47.69;101202.63;110116;1257;19455;-42
2023/07/10 09:26:45;;;;;;;;;3.00;3.00;;;;;25.01;47.60;101198.12;110209;1250;21310;-42
2023/07/10 09:29:14;;;;;;;;;2.00;2.00;;;;;25.00;47.56;101188.87;110235;1264;19258;-40
2023/07/10 09:31:41;;;;;;;;;5.50;3.00;;;;;25.01;47.74;101187.61;110239;1259;18382;-41
2023/07/10 09:34:09;;;;;;;;;3.00;3.00;;;;;25.00;47.59;101184.30;110271;1264;18588;-39
2023/07/10 09:36:36;;;;;;;;;2.00;2.00;;;;;25.03;47.46;101183.56;110281;1249;19506;-40
2023/07/10 09:39:03;;;;;;;;;3.00;3.00;;;;;25.05;47.67;101182.45;110224;1264;18429;-40
2023/07/10 09:41:31;;;;;;;;;3.50;2.00;;;;;25.09;47.96;101181.58;110244;1264;20059;-40
2023/07/10 09:43:58;;;;;;;;;5.00;5.00;;;;;25.11;48.12;101177.70;110230;1265;22915;-40
2023/07/10 09:46:26;;;;;;;;;2.00;2.00;;;;;25.14;48.21;101180.31;110278;1264;18406;-41
2023/07/10 09:48:53;;;;;;;;;3.00;3.00;;;;;25.14;48.39;101178.99;110217;1264;19962;-40
2023/07/10 09:51:21;;;;;;;;;5.00;4.00;;;;;25.14;48.40;101182.08;110107;1265;20636;-41
2023/07/10 09:53:49;;;;;;;;;4.00;3.00;;;;;25.14;48.63;101174.78;110223;1264;19553;-42
2023/07/10 09:56:16;;;;;;;;;3.00;3.00;;;;;25.14;48.65;101174.15;110210;1264;21546;-41
2023/07/10 09:58:43;;;;;;;;;2.00;2.00;;;;;25.16;48.68;101170.05;110178;1249;22744;-42
2023/07/10 10:01:11;;;;;;;;;3.00;2.00;;;;;25.18;49.00;101177.14;110194;1256;18639;-42
2023/07/10 10:03:41;;;;;;;;;2.50;2.50;;;;;25.16;48.91;101181.81;110213;1257;20123;-39
2023/07/10 10:06:08;;;;;;;;;3.00;3.00;;;;;25.17;49.24;101179.45;110129;1264;20767;-40
2023/07/10 10:08:36;;;;;;;;;2.00;2.00;;;;;25.18;49.03;101178.95;110264;1250;19642;-41
2023/07/10 10:11:03;;;;;;;;;3.00;3.00;;;;;25.17;49.06;101169.75;110194;1249;21198;-41
2023/07/10 10:13:31;;;;;;;;;2.00;2.00;;;;;25.17;49.03;101170.17;110177;1250;20766;-41
2023/07/10 10:16:03;;;;;;;;;2.00;2.00;;;;;25.17;49.03;101168.65;110220;1250;19626;-41
2023/07/10 10:18:30;;;;;;;;;3.00;2.00;;;;;25.18;49.04;101167.48;110271;1249;22111;-40
2023/07/10 10:20:58;;;;;;;;;3.00;3.00;;;;;25.19;49.07;101168.96;110246;1264;19346;-40
2023/07/10 10:23:25;;;;;;;;;2.00;2.00;;;;;25.19;49.12;101162.50;110262;1250;19664;-41
2023/07/10 10:25:52;;;;;;;;;3.00;3.00;;;;;25.18;48.82;101158.99;110247;1250;20012;-41
2023/07/10 10:28:20;;;;;;;;;3.00;3.00;;;;;25.19;49.10;101158.20;110210;1250;20838;-41
2023/07/10 10:30:47;;;;;;;;;7.00;7.00;;;;;25.21;49.13;101159.54;110165;1250;19860;-40
2023/07/10 10:33:16;;;;;;;;;5.00;5.00;;;;;25.30;47.94;101156.38;110265;1265;18601;-40
2023/07/10 10:35:43;;;;;;;;;3.00;3.00;;;;;25.38;47.22;101152.47;110298;1249;21786;-40
2023/07/10 10:38:10;;;;;;;;;5.00;5.00;;;;;25.36;48.31;101141.97;110193;1264;18527;-40
2023/07/10 10:40:38;;;;;;;;;3.00;3.00;;;;;25.34;49.31;101138.41;110159;1250;18581;-40
2023/07/10 10:43:05;;;;;;;;;3.67;3.67;;;;;25.35;50.42;101133.48;110188;1250;21078;-40
2023/07/10 10:45:33;;;;;;;;;4.00;4.00;;;;;25.36;51.03;101132.48;110238;1257;20664;-39
2023/07/10 10:48:00;;;;;;;;;3.00;3.00;;;;;25.36;52.09;101124.55;110262;1264;18644;-41
2023/07/10 10:50:28;;;;;;;;;3.00;3.00;;;;;25.36;52.37;101129.27;110236;1249;20898;-40
2023/07/10 10:52:55;;;;;;;;;5.00;5.00;;;;;25.35;52.28;101128.13;110214;1250;19669;-40
2023/07/10 10:55:22;;;;;;;;;3.00;3.00;;;;;25.35;52.23;101127.06;110268;1250;20089;-44
2023/07/10 10:57:50;;;;;;;;;3.00;3.00;;;;;25.35;52.07;101125.34;110207;1250;20811;-42
2023/07/10 11:00:17;;;;;;;;;3.00;3.00;;;;;25.33;51.97;101118.91;110244;1264;18422;-41
2023/07/10 11:02:45;;;;;;;;;3.00;3.00;;;;;25.34;51.98;101112.98;110254;1264;18638;-41
2023/07/10 11:05:12;;;;;;;;;3.67;3.67;;;;;25.35;52.02;101111.54;110239;1250;20752;-41
2023/07/10 11:07:40;;;;;;;;;5.00;3.00;;;;;25.34;51.99;101107.61;110189;1250;22229;-41